Latest Weather Observations for Condobolin Airport

IDN60801

Issued at 10:32 am EST Sunday 19 April 2015 (issued every 30 minutes, with the page automatically refreshed every 10 minutes)

About weather observations | Map of weather stations | Latest weather observations for NSW | Other Formats
Station Details ID: 050137 Name: CONDOBOLIN AIRPORT AWS Lat: -33.07 Lon: 147.21 Height: 192.6 m
Data from the previous 72 hours. | See also: Recent months at Condobolin Airport
Date/Time
EST
Temp
°C
App
Temp
°C
Dew
Point
Rel
Hum
%
Delta-T
°C
Wind Press
QNH
hPa
Press
MSL
hPa
Rain
since 9 am
mm
Dir
 
Spd
km/h
Gust
km/h
Spd
kts
Gust
kts
19/10:30am 13.4 8.4 9.6 78 2.0 SSW 26 33 14 18 1023.8 1023.5 0.0
19/10:00am 13.2 7.8 9.6 79 1.8 SW 28 33 15 18 1023.6 1023.3 0.0
19/09:30am 13.2 8.5 10.7 85 1.3 SW 26 37 14 20 1023.2 1022.9 0.0
19/09:00am 12.6 7.3 11.2 91 0.7 SSW 30 39 16 21 1022.8 1022.5 1.4
19/08:48am 12.8 7.7 10.7 87 1.1 SW 28 50 15 27 1022.7 1022.4 1.4
19/08:30am 14.4 11.3 13.3 93 0.6 SW 22 30 12 16 1022.0 1021.7 1.4
19/08:00am 13.9 11.0 12.8 93 0.6 SW 20 28 11 15 1021.6 1021.3 1.4
19/07:30am 13.6 11.2 12.7 94 0.5 SW 17 20 9 11 1021.1 1020.7 1.4
19/07:00am 13.3 9.5 12.5 95 0.4 WSW 24 28 13 15 1020.6 1020.2 1.4
19/06:30am 13.1 11.5 12.9 99 0.1 W 13 30 7 16 1020.0 1019.6 1.4
19/06:00am 12.7 11.3 12.2 97 0.3 W 11 13 6 7 1019.2 1018.9 1.4
19/05:30am 13.0 11.3 12.5 97 0.3 WSW 13 17 7 9 1018.8 1018.5 1.4
19/05:00am 13.4 11.7 12.6 95 0.4 WSW 13 17 7 9 1018.8 1018.5 1.4
19/04:30am 14.0 11.8 13.2 95 0.4 WSW 17 20 9 11 1018.7 1018.4 1.4
19/04:00am 14.6 13.0 13.8 95 0.5 WSW 15 20 8 11 1018.1 1017.8 1.4
19/03:30am 14.5 12.4 13.7 95 0.5 WSW 17 22 9 12 1018.1 1017.8 1.4
19/03:00am 14.4 12.7 13.6 95 0.4 WSW 15 20 8 11 1018.0 1017.7 1.4
19/02:30am 14.3 12.5 13.3 94 0.6 SW 15 20 8 11 1018.1 1017.8 1.4
19/02:00am 14.5 13.5 13.5 94 0.6 WSW 11 15 6 8 1018.2 1017.9 1.4
19/01:30am 14.1 12.9 12.7 91 0.8 WSW 11 15 6 8 1018.5 1018.2 1.4
19/01:00am 14.5 12.5 12.7 89 1.0 SW 15 19 8 10 1018.6 1018.3 1.4
19/12:30am 15.0 12.1 13.0 88 1.1 SW 20 28 11 15 1018.6 1018.3 1.4
19/12:00am 15.6 13.4 15.0 96 0.3 SW 20 26 11 14 1018.5 1018.2 1.4
 
Date/Time
EST
Temp
°C
App
Temp
°C
Dew
Point
Rel
Hum
%
Delta-T
°C
Wind Press
QNH
hPa
Press
MSL
hPa
Rain
since 9 am
mm
Dir
 
Spd
km/h
Gust
km/h
Spd
kts
Gust
kts
18/11:30pm 15.8 13.4 15.5 98 0.2 WSW 22 30 12 16 1018.4 1018.1 1.4
18/11:00pm 16.1 14.3 15.9 99 0.1 WSW 20 28 11 15 1018.3 1018.0 1.4
18/10:30pm 17.6 18.1 16.6 94 0.6 W 9 15 5 8 1018.0 1017.7 0.4
18/10:00pm 17.7 17.8 16.6 93 0.7 W 11 17 6 9 1017.8 1017.5 0.4
18/09:30pm 17.7 17.9 16.7 94 0.6 W 11 15 6 8 1017.2 1016.9 0.4
18/09:00pm 17.5 18.1 16.7 95 0.5 WNW 9 13 5 7 1017.3 1017.0 0.4
18/08:30pm 17.4 17.7 16.1 92 0.8 WNW 9 11 5 6 1017.0 1016.7 0.4
18/08:00pm 17.5 17.8 16.0 91 0.9 WNW 9 11 5 6 1016.7 1016.4 0.4
18/07:30pm 17.7 17.6 15.9 89 1.1 WNW 11 15 6 8 1016.3 1015.9 0.4
18/07:00pm 17.9 17.1 16.2 90 1.0 W 15 20 8 11 1016.5 1016.1 0.4
18/06:30pm 18.1 18.0 16.9 93 0.7 WNW 13 17 7 9 1016.2 1015.8 0.4
18/06:00pm 18.0 18.8 17.4 96 0.4 WNW 9 13 5 7 1015.6 1015.2 0.4
18/05:30pm 18.0 18.5 17.4 96 0.4 W 11 15 6 8 1015.5 1015.1 0.4
18/05:00pm 17.7 17.6 16.9 95 0.5 W 13 20 7 11 1014.7 1014.3 0.4
18/04:30pm 17.7 17.1 16.7 94 0.6 W 15 20 8 11 1014.9 1014.5 0.2
18/04:00pm 17.5 16.2 16.7 95 0.5 W 19 24 10 13 1014.8 1014.4 0.2
18/03:30pm 17.6 15.1 16.1 91 0.9 WSW 24 28 13 15 1014.4 1014.0 0.2
18/03:00pm 21.3 19.9 16.9 76 2.7 W 20 30 11 16 1014.8 1014.4 0.0
18/02:30pm 21.8 20.7 16.3 71 3.4 WSW 17 20 9 11 1014.2 1013.8 0.0
18/02:00pm 23.0 21.4 16.1 65 4.2 WSW 19 22 10 12 1014.4 1014.0 0.0
18/01:30pm 23.1 22.3 15.2 61 4.8 WSW 13 17 7 9 1014.5 1014.1 0.0
18/01:00pm 23.1 21.8 14.9 60 4.9 WSW 15 19 8 10 1014.5 1014.1 0.0
18/12:30pm 23.3 22.3 14.6 58 5.2 WSW 13 17 7 9 1014.9 1014.5 0.0
18/12:00pm 23.6 21.8 13.2 52 6.1 WNW 15 20 8 11 1015.3 1014.9 0.0
18/11:30am 23.7 21.6 13.6 53 5.9 NW 17 24 9 13 1016.0 1015.6 0.0
18/11:00am 23.5 21.7 13.4 53 5.9 NNW 15 20 8 11 1016.4 1016.0 0.0
18/10:30am 23.3 20.6 12.9 52 6.0 NNW 19 26 10 14 1016.9 1016.6 0.0
18/10:00am 22.7 20.5 13.2 55 5.5 NW 17 24 9 13 1017.3 1017.0 0.0
18/09:30am 22.5 20.6 13.0 55 5.5 NNW 15 24 8 13 1017.4 1017.1 0.0
18/09:00am 22.3 20.1 13.4 57 5.2 NNW 17 24 9 13 1017.7 1017.4 0.0
18/08:30am 21.7 19.4 13.1 58 5.0 N 17 20 9 11 1017.1 1016.8 0.0
18/08:00am 21.4 18.5 12.8 58 4.9 NNE 20 28 11 15 1017.0 1016.7 0.0
18/07:30am 21.2 17.5 12.6 58 4.9 NNE 24 30 13 16 1016.7 1016.4 0.0
18/07:00am 21.0 18.0 12.7 59 4.7 NNE 20 24 11 13 1016.5 1016.1 0.0
18/06:30am 20.7 19.4 12.4 59 4.7 N 11 13 6 7 1016.5 1016.1 0.0
18/06:00am 21.6 18.6 11.9 54 5.5 N 19 26 10 14 1016.1 1015.7 0.0
18/05:30am 21.7 19.2 12.3 55 5.4 NNW 17 24 9 13 1016.1 1015.7 0.0
18/05:00am 21.2 19.4 12.1 56 5.1 NW 13 17 7 9 1015.8 1015.4 0.0
18/04:30am 22.4 18.5 12.1 52 5.9 N 24 33 13 18 1015.4 1015.0 0.0
18/04:00am 22.5 17.9 12.4 52 5.8 N 28 37 15 20 1014.7 1014.3 0.0
18/03:30am 22.9 18.4 12.5 52 6.0 N 28 35 15 19 1014.8 1014.4 0.0
18/03:00am 23.4 18.5 12.4 50 6.3 N 30 39 16 21 1014.7 1014.3 0.0
18/02:30am 23.7 18.5 12.7 50 6.4 N 32 39 17 21 1014.8 1014.4 0.0
18/02:00am 23.9 18.7 12.8 49 6.4 N 32 43 17 23 1015.1 1014.7 0.0
18/01:30am 24.5 18.7 12.8 48 6.8 N 35 48 19 26 1015.4 1015.0 0.0
18/01:00am 24.7 19.0 13.0 48 6.8 N 35 48 19 26 1015.4 1015.0 0.0
18/12:30am 23.9 19.1 12.8 49 6.4 N 30 39 16 21 1015.4 1015.0 0.0
18/12:00am 23.8 19.5 13.1 51 6.2 NNE 28 35 15 19 1015.3 1014.9 0.0
 
Date/Time
EST
Temp
°C
App
Temp
°C
Dew
Point
Rel
Hum
%
Delta-T
°C
Wind Press
QNH
hPa
Press
MSL
hPa
Rain
since 9 am
mm
Dir
 
Spd
km/h
Gust
km/h
Spd
kts
Gust
kts
17/11:30pm 23.9 20.4 13.4 51 6.2 NNE 24 33 13 18 1015.5 1015.1 0.0
17/11:00pm 24.0 20.9 14.4 55 5.7 NNE 24 33 13 18 1016.0 1015.6 0.0
17/10:30pm 21.7 21.9 17.7 78 2.5 NNE 13 19 7 10 1016.6 1016.2 0.0
17/10:00pm 19.0 19.8 18.2 95 0.5 E 11 13 6 7 1016.8 1016.5 0.0
17/09:30pm 19.1 19.9 18.1 94 0.6 E 11 13 6 7 1016.9 1016.6 0.0
17/09:00pm 19.1 19.9 18.1 94 0.6 E 11 15 6 8 1017.1 1016.8 0.0
17/08:30pm 18.9 19.9 17.7 93 0.7 E 9 13 5 7 1017.1 1016.8 0.0
17/08:00pm 19.2 20.3 17.9 92 0.8 E 9 11 5 6 1017.1 1016.8 0.0
17/07:30pm 19.5 20.5 17.8 90 1.1 ESE 9 11 5 6 1017.0 1016.7 0.0
17/07:00pm 19.9 21.3 17.7 87 1.4 ESE 7 9 4 5 1017.0 1016.7 0.0
17/06:30pm 20.6 21.5 17.6 83 1.9 ESE 9 11 5 6 1017.1 1016.8 0.0
17/06:00pm 21.5 22.1 17.7 79 2.4 ESE 11 15 6 8 1017.0 1016.7 0.0
17/05:30pm 22.2 22.5 17.8 76 2.8 ESE 13 17 7 9 1016.7 1016.4 0.0
17/05:00pm 23.0 23.2 17.7 72 3.3 ESE 13 19 7 10 1016.9 1016.6 0.0
17/04:30pm 23.3 22.6 17.3 69 3.7 E 17 20 9 11 1017.2 1016.9 0.0
17/04:00pm 23.8 23.1 17.3 67 4.1 E 17 20 9 11 1017.5 1017.2 0.0
17/03:30pm 23.4 22.3 17.2 68 3.9 E 19 24 10 13 1017.7 1017.4 0.0
17/03:00pm 23.7 22.3 17.0 66 4.2 E 20 30 11 16 1018.1 1017.8 0.0
17/02:30pm 23.6 21.1 16.1 62 4.6 E 24 32 13 17 1018.4 1018.1 0.0
17/02:00pm 22.9 20.5 16.4 67 4.0 E 24 32 13 17 1018.7 1018.4 0.0
17/01:30pm 22.2 19.0 16.2 69 3.7 E 28 37 15 20 1018.7 1018.4 0.0
17/01:00pm 22.0 20.4 16.5 71 3.4 ESE 20 24 11 13 1020.0 1019.6 0.0
17/12:30pm 21.2 20.1 16.4 74 2.9 ESE 17 20 9 11 1021.0 1020.6 0.0
17/12:00pm 21.1 20.3 16.1 73 3.0 ESE 15 20 8 11 1021.8 1021.5 0.0
17/11:30am 20.8 20.0 16.2 75 2.8 E 15 20 8 11 1022.3 1022.0 0.0
17/11:00am 20.5 20.0 16.9 80 2.2 E 15 19 8 10 1022.7 1022.4 0.0
17/10:30am 20.0 18.5 16.2 79 2.3 E 19 26 10 14 1022.8 1022.5 0.0
17/10:00am 20.3 19.1 17.1 82 2.0 E 19 26 10 14 1023.1 1022.8 0.0
17/09:30am 19.2 19.0 17.5 90 1.0 E 15 19 8 10 1023.7 1023.4 0.0
17/09:00am 18.1 18.1 17.1 94 0.6 E 13 15 7 8 1024.0 1023.7 1.6
17/08:30am 17.3 16.6 16.5 95 0.5 E 15 19 8 10 1024.0 1023.7 1.6
17/08:00am 16.6 16.5 16.1 97 0.3 E 11 15 6 8 1024.1 1023.8 1.6
17/07:30am 16.1 16.8 15.5 96 0.4 SE 6 7 3 4 1024.1 1023.8 1.6
17/07:00am 15.8 16.4 15.2 96 0.3 ESE 6 7 3 4 1023.9 1023.6 1.6
17/06:30am 15.6 15.8 14.8 95 0.5 SSE 7 15 4 8 1023.5 1023.2 1.6
17/06:00am 15.7 15.4 14.4 92 0.7 SE 9 13 5 7 1023.2 1022.9 1.4
17/05:30am 16.8 16.1 13.3 80 2.0 SSW 9 13 5 7 1023.0 1022.7 0.0
17/05:00am 17.3 15.7 12.8 75 2.5 SSE 13 19 7 10 1022.6 1022.3 0.0
17/04:30am 17.3 15.4 13.0 76 2.4 SSE 15 20 8 11 1022.2 1021.9 0.0
17/04:00am 17.8 15.6 13.3 75 2.6 SSE 17 24 9 13 1022.0 1021.7 0.0
17/03:30am 18.1 17.1 14.6 80 2.0 SSE 13 15 7 8 1021.7 1021.4 0.0
17/03:00am 18.3 17.6 14.4 78 2.3 SSE 11 15 6 8 1021.9 1021.6 0.0
17/02:30am 18.6 17.5 14.3 76 2.5 SSW 13 19 7 10 1022.4 1022.1 0.0
17/02:00am 18.3 16.3 13.8 75 2.6 SW 17 20 9 11 1022.7 1022.4 0.0
17/01:30am 20.4 18.1 11.9 58 4.8 SW 15 20 8 11 1023.1 1022.8 0.0
17/01:00am 20.0 18.8 11.5 58 4.7 SSW 9 11 5 6 1022.8 1022.5 0.0
17/12:30am 20.9 18.8 11.0 53 5.5 SSE 13 17 7 9 1022.7 1022.4 0.0
17/12:00am 21.5 19.0 11.2 52 5.7 SSE 15 26 8 14 1022.9 1022.6 0.0
 
Date/Time
EST
Temp
°C
App
Temp
°C
Dew
Point
Rel
Hum
%
Delta-T
°C
Wind Press
QNH
hPa
Press
MSL
hPa
Rain
since 9 am
mm
Dir
 
Spd
km/h
Gust
km/h
Spd
kts
Gust
kts
16/11:30pm 22.4 20.3 9.6 44 7.0 S 11 13 6 7 1023.3 1023.0 0.0
16/11:00pm 22.5 19.8 9.0 42 7.2 SSW 13 17 7 9 1023.7 1023.4 0.0
16/10:30pm 23.3 19.3 8.2 38 8.1 SSW 19 30 10 16 1023.7 1023.4 0.0
16/10:00pm 23.5 19.3 7.6 36 8.4 SSW 19 24 10 13 1023.2 1022.9 0.0
16/09:30pm 24.5 19.9 8.0 35 8.8 SSW 22 32 12 17 1022.7 1022.4 0.0
16/09:00pm 24.6 21.6 10.5 41 7.9 SSW 17 24 9 13 1022.4 1022.1 0.0
16/08:30pm 24.3 22.9 12.3 47 6.9 SW 11 13 6 7 1022.0 1021.7 0.0
16/08:00pm 23.9 23.2 13.2 51 6.2 SSW 9 11 5 6 1021.8 1021.5 0.0
16/07:30pm 24.8 24.6 13.0 47 6.9 SSW 6 7 3 4 1021.3 1021.0 0.0
16/07:00pm 25.3 25.8 11.5 42 7.9 CALM 0 0 0 0 1021.1 1020.7 0.0
16/06:30pm 25.9 25.6 11.6 40 8.2 S 4 7 2 4 1020.7 1020.3 0.0
16/06:00pm 26.6 25.1 10.7 37 9.0 S 9 11 5 6 1020.3 1019.9 0.0
16/05:30pm 28.0 25.3 10.2 33 10.1 SSW 15 20 8 11 1020.3 1019.9 0.0
16/05:00pm 29.0 26.5 9.7 30 10.9 WSW 13 17 7 9 1020.1 1019.7 0.0
16/04:30pm 29.7 26.5 9.8 29 11.3 SW 17 20 9 11 1020.1 1019.7 0.0
16/04:00pm 29.2 25.8 9.3 29 11.1 SW 17 24 9 13 1020.1 1019.7 0.0
16/03:30pm 29.9 26.2 9.4 28 11.6 WSW 19 26 10 14 1020.5 1020.1 0.0
16/03:00pm 29.7 26.7 9.3 28 11.4 WSW 15 20 8 11 1020.6 1020.2 0.0
16/02:30pm 30.9 28.6 10.3 28 11.8 SW 13 22 7 12 1020.5 1020.1 0.0
16/02:00pm 30.3 28.2 9.8 28 11.6 SW 11 20 6 11 1020.7 1020.3 0.0
16/01:30pm 30.6 28.8 9.5 27 12.0 W 9 15 5 8 1021.0 1020.6 0.0
16/01:00pm 30.1 28.7 9.6 28 11.6 NW 7 19 4 10 1021.4 1021.1 0.0
16/12:30pm 29.6 27.6 10.2 30 11.1 NNW 11 20 6 11 1021.9 1021.6 0.0
16/12:00pm 29.5 26.9 10.6 31 10.8 NW 15 22 8 12 1022.4 1022.1 0.0
16/11:30am 28.3 25.1 10.0 32 10.3 WNW 17 24 9 13 1023.0 1022.7 0.0
16/11:00am 28.3 25.9 11.4 35 9.7 N 15 22 8 12 1023.3 1023.0 0.0

Other Formats:

Comma delimited format used in spreadsheet applications
http://www.bom.gov.au/fwo/IDN60801/IDN60801.95708.axf

JavaScript Object Notation format (JSON) in row-major order
http://www.bom.gov.au/fwo/IDN60801/IDN60801.95708.json